Orbital elements of FENGYUN 1C DEB
| Launched | 9 May 1999 |
| Flight ended | – |
| Launch site | Taiyuan Space Center, PRC |
| Owner | People's Republic of China |
| NORAD ID | 31523 |
| Date fetched |
Epoch osculation |
Inc. [°] |
Ecc. | RA asc node [hr] |
Arg Peri. [°] |
Mean anom [°] |
Mean motion [rev/day] |
Abs. mag |
| Date fetched |
Epoch osculation |
Inc. [°] |
Ecc. | RA asc node [hr] |
Arg Peri. [°] |
Mean anom [°] |
Mean motion [rev/day] |
Abs. mag |
| 2026 May 05 17:57 | 2026 May 05 09:09:19 | 98.7304 | 0.00393 | 11.6538 | 62.1515 | 1.9123 | 14.13875 | – |
| 2026 May 04 17:57 | 2026 Apr 28 09:00:24 | 98.7316 | 0.00395 | 11.1975 | 81.5827 | 1.9123 | 14.13875 | – |
| 2026 May 03 17:57 | 2026 Apr 28 09:00:24 | 98.7316 | 0.00395 | 11.1975 | 81.5827 | 1.9123 | 14.13875 | – |
| 2026 May 02 17:57 | 2026 Apr 28 09:00:24 | 98.7316 | 0.00395 | 11.1975 | 81.5827 | 1.9123 | 14.13875 | – |
| 2026 May 01 17:56 | 2026 Apr 28 09:00:24 | 98.7316 | 0.00395 | 11.1975 | 81.5827 | 1.9123 | 14.13875 | – |
| 2026 Apr 30 17:56 | 2026 Apr 28 09:00:24 | 98.7316 | 0.00395 | 11.1975 | 81.5827 | 1.9123 | 14.13875 | – |
| 2026 Apr 29 17:57 | 2026 Apr 21 21:17:46 | 98.7327 | 0.00395 | 10.7749 | 99.5382 | 1.9123 | 14.13875 | – |
| 2026 Apr 28 17:56 | 2026 Apr 21 21:17:46 | 98.7327 | 0.00395 | 10.7749 | 99.5382 | 1.9123 | 14.13875 | – |
| 2026 Apr 27 17:58 | 2026 Apr 21 21:17:46 | 98.7327 | 0.00395 | 10.7749 | 99.5382 | 1.9123 | 14.13875 | – |
| 2026 Apr 26 17:58 | 2026 Apr 21 21:17:46 | 98.7327 | 0.00395 | 10.7749 | 99.5382 | 1.9123 | 14.13875 | – |
| 2026 Apr 25 17:58 | 2026 Apr 21 21:17:46 | 98.7327 | 0.00395 | 10.7749 | 99.5382 | 1.9123 | 14.13875 | – |
| 2026 Apr 24 17:59 | 2026 Apr 21 21:17:46 | 98.7327 | 0.00395 | 10.7749 | 99.5382 | 1.9123 | 14.13875 | – |
| 2026 Apr 23 17:57 | 2026 Apr 19 09:19:09 | 98.7334 | 0.00394 | 10.6121 | 106.5185 | 1.9123 | 14.13875 | – |
| 2026 Apr 22 17:57 | 2026 Apr 19 09:19:09 | 98.7334 | 0.00394 | 10.6121 | 106.5185 | 1.9123 | 14.13875 | – |
| 2026 Apr 21 17:57 | 2026 Apr 19 09:19:09 | 98.7334 | 0.00394 | 10.6121 | 106.5185 | 1.9123 | 14.13875 | – |
| 2026 Apr 20 17:57 | 2026 Apr 19 09:19:09 | 98.7334 | 0.00394 | 10.6121 | 106.5185 | 1.9123 | 14.13875 | – |
| 2026 Apr 19 17:58 | 2026 Apr 19 09:19:09 | 98.7334 | 0.00394 | 10.6121 | 106.5185 | 1.9123 | 14.13875 | – |
| 2026 Apr 18 17:56 | 2026 Apr 12 14:40:57 | 98.7342 | 0.00393 | 10.1706 | 125.2857 | 1.9123 | 14.13875 | – |
| 2026 Apr 16 17:57 | 2026 Apr 12 14:40:57 | 98.7342 | 0.00393 | 10.1706 | 125.2857 | 1.9123 | 14.13875 | – |
| 2026 Apr 14 17:57 | 2026 Apr 12 14:40:57 | 98.7342 | 0.00393 | 10.1706 | 125.2857 | 1.9123 | 14.13875 | – |
| 2026 Apr 13 17:57 | 2026 Apr 12 14:40:57 | 98.7342 | 0.00393 | 10.1706 | 125.2857 | 1.9123 | 14.13875 | – |
| 2026 Apr 12 17:57 | 2026 Apr 06 01:51:30 | 98.7353 | 0.00391 | 9.7449 | 143.5048 | 1.9123 | 14.13875 | – |
| 2026 Apr 11 17:57 | 2026 Apr 06 01:51:30 | 98.7353 | 0.00391 | 9.7449 | 143.5048 | 1.9123 | 14.13875 | – |
| 2026 Apr 10 17:58 | 2026 Apr 06 01:51:30 | 98.7353 | 0.00391 | 9.7449 | 143.5048 | 1.9123 | 14.13875 | – |
| 2026 Apr 09 18:01 | 2026 Apr 06 01:51:30 | 98.7353 | 0.00391 | 9.7449 | 143.5048 | 1.9123 | 14.13875 | – |
| 2026 Apr 08 17:57 | 2026 Apr 06 01:51:30 | 98.7353 | 0.00391 | 9.7449 | 143.5048 | 1.9123 | 14.13875 | – |